sensor_id;sensor_type;location;lat;lon;timestamp;P1;durP1;ratioP1;P2;durP2;ratioP2
13967;SDS011;39536;52.198;9.920;2023-06-10T00:01:23;5.30;;;4.80;;
13967;SDS011;39536;52.198;9.920;2023-06-10T00:03:50;5.83;;;4.67;;
13967;SDS011;39536;52.198;9.920;2023-06-10T00:06:16;5.37;;;4.87;;
13967;SDS011;39536;52.198;9.920;2023-06-10T00:08:43;6.37;;;4.77;;
13967;SDS011;39536;52.198;9.920;2023-06-10T00:11:12;6.23;;;4.73;;
13967;SDS011;39536;52.198;9.920;2023-06-10T00:13:38;7.27;;;4.80;;
13967;SDS011;39536;52.198;9.920;2023-06-10T00:16:07;4.70;;;4.30;;
13967;SDS011;39536;52.198;9.920;2023-06-10T00:18:34;4.70;;;4.30;;
13967;SDS011;39536;52.198;9.920;2023-06-10T00:21:03;4.80;;;4.40;;
13967;SDS011;39536;52.198;9.920;2023-06-10T00:23:30;5.63;;;4.53;;
13967;SDS011;39536;52.198;9.920;2023-06-10T00:26:02;4.83;;;4.20;;
13967;SDS011;39536;52.198;9.920;2023-06-10T00:28:29;9.80;;;4.47;;
13967;SDS011;39536;52.198;9.920;2023-06-10T00:30:56;5.10;;;4.60;;
13967;SDS011;39536;52.198;9.920;2023-06-10T00:33:24;6.87;;;4.77;;
13967;SDS011;39536;52.198;9.920;2023-06-10T00:35:50;4.37;;;4.07;;
13967;SDS011;39536;52.198;9.920;2023-06-10T00:38:17;5.03;;;4.63;;
13967;SDS011;39536;52.198;9.920;2023-06-10T00:40:43;4.30;;;3.97;;
13967;SDS011;39536;52.198;9.920;2023-06-10T00:43:10;6.70;;;4.03;;
13967;SDS011;39536;52.198;9.920;2023-06-10T00:45:37;5.13;;;4.00;;
13967;SDS011;39536;52.198;9.920;2023-06-10T00:48:03;4.63;;;4.23;;
13967;SDS011;39536;52.198;9.920;2023-06-10T00:50:32;5.33;;;4.73;;
13967;SDS011;39536;52.198;9.920;2023-06-10T00:52:59;4.90;;;4.50;;
13967;SDS011;39536;52.198;9.920;2023-06-10T00:55:27;4.47;;;4.00;;
13967;SDS011;39536;52.198;9.920;2023-06-10T00:57:54;5.47;;;4.30;;
13967;SDS011;39536;52.198;9.920;2023-06-10T01:00:21;5.93;;;4.30;;
13967;SDS011;39536;52.198;9.920;2023-06-10T01:02:47;6.63;;;4.70;;
13967;SDS011;39536;52.198;9.920;2023-06-10T01:05:17;3.97;;;3.77;;
13967;SDS011;39536;52.198;9.920;2023-06-10T01:07:47;6.73;;;4.37;;
13967;SDS011;39536;52.198;9.920;2023-06-10T01:10:19;5.73;;;4.53;;
13967;SDS011;39536;52.198;9.920;2023-06-10T01:12:52;4.50;;;4.10;;
13967;SDS011;39536;52.198;9.920;2023-06-10T01:15:24;4.93;;;4.43;;
13967;SDS011;39536;52.198;9.920;2023-06-10T01:17:54;4.87;;;4.13;;
13967;SDS011;39536;52.198;9.920;2023-06-10T01:20:22;5.07;;;4.67;;
13967;SDS011;39536;52.198;9.920;2023-06-10T01:22:53;4.87;;;4.40;;
13967;SDS011;39536;52.198;9.920;2023-06-10T01:25:20;4.60;;;4.20;;
13967;SDS011;39536;52.198;9.920;2023-06-10T01:27:53;5.40;;;4.20;;
13967;SDS011;39536;52.198;9.920;2023-06-10T01:30:28;4.77;;;4.37;;
13967;SDS011;39536;52.198;9.920;2023-06-10T01:33:03;5.73;;;5.17;;
13967;SDS011;39536;52.198;9.920;2023-06-10T01:35:53;4.90;;;4.40;;
13967;SDS011;39536;52.198;9.920;2023-06-10T01:38:25;6.90;;;4.93;;
13967;SDS011;39536;52.198;9.920;2023-06-10T01:40:53;5.70;;;4.90;;
13967;SDS011;39536;52.198;9.920;2023-06-10T01:43:21;6.03;;;4.77;;
13967;SDS011;39536;52.198;9.920;2023-06-10T01:45:48;5.30;;;4.83;;
13967;SDS011;39536;52.198;9.920;2023-06-10T01:48:15;7.43;;;5.00;;
13967;SDS011;39536;52.198;9.920;2023-06-10T01:50:41;4.97;;;4.57;;
13967;SDS011;39536;52.198;9.920;2023-06-10T01:53:09;4.70;;;4.27;;
13967;SDS011;39536;52.198;9.920;2023-06-10T01:55:37;6.13;;;4.83;;
13967;SDS011;39536;52.198;9.920;2023-06-10T01:58:03;4.87;;;4.47;;
13967;SDS011;39536;52.198;9.920;2023-06-10T02:00:30;7.33;;;5.00;;
13967;SDS011;39536;52.198;9.920;2023-06-10T02:02:56;4.80;;;4.27;;
13967;SDS011;39536;52.198;9.920;2023-06-10T02:05:23;5.00;;;4.60;;
13967;SDS011;39536;52.198;9.920;2023-06-10T02:07:50;8.17;;;4.73;;
13967;SDS011;39536;52.198;9.920;2023-06-10T02:10:16;5.60;;;4.97;;
13967;SDS011;39536;52.198;9.920;2023-06-10T02:12:44;5.47;;;4.97;;
13967;SDS011;39536;52.198;9.920;2023-06-10T02:15:11;5.40;;;4.73;;
13967;SDS011;39536;52.198;9.920;2023-06-10T02:17:37;6.50;;;5.47;;
13967;SDS011;39536;52.198;9.920;2023-06-10T02:20:04;6.27;;;4.67;;
13967;SDS011;39536;52.198;9.920;2023-06-10T02:22:32;5.43;;;4.40;;
13967;SDS011;39536;52.198;9.920;2023-06-10T02:24:59;5.80;;;5.30;;
13967;SDS011;39536;52.198;9.920;2023-06-10T02:27:26;5.00;;;4.60;;
13967;SDS011;39536;52.198;9.920;2023-06-10T02:29:54;5.97;;;5.37;;
13967;SDS011;39536;52.198;9.920;2023-06-10T02:32:21;5.53;;;5.10;;
13967;SDS011;39536;52.198;9.920;2023-06-10T02:34:47;8.23;;;5.47;;
13967;SDS011;39536;52.198;9.920;2023-06-10T02:37:15;7.20;;;5.50;;
13967;SDS011;39536;52.198;9.920;2023-06-10T02:39:41;7.10;;;5.30;;
13967;SDS011;39536;52.198;9.920;2023-06-10T02:42:08;5.63;;;5.10;;
13967;SDS011;39536;52.198;9.920;2023-06-10T02:44:35;5.33;;;4.93;;
13967;SDS011;39536;52.198;9.920;2023-06-10T02:47:03;6.57;;;4.93;;
13967;SDS011;39536;52.198;9.920;2023-06-10T02:49:30;9.63;;;5.30;;
13967;SDS011;39536;52.198;9.920;2023-06-10T02:51:56;5.57;;;5.13;;
13967;SDS011;39536;52.198;9.920;2023-06-10T02:54:24;5.83;;;5.30;;
13967;SDS011;39536;52.198;9.920;2023-06-10T02:56:50;6.43;;;5.30;;
13967;SDS011;39536;52.198;9.920;2023-06-10T02:59:17;5.93;;;5.20;;
13967;SDS011;39536;52.198;9.920;2023-06-10T03:01:46;5.43;;;4.93;;
13967;SDS011;39536;52.198;9.920;2023-06-10T03:04:14;5.90;;;5.23;;
13967;SDS011;39536;52.198;9.920;2023-06-10T03:06:41;8.93;;;5.70;;
13967;SDS011;39536;52.198;9.920;2023-06-10T03:09:07;5.30;;;4.80;;
13967;SDS011;39536;52.198;9.920;2023-06-10T03:11:34;8.07;;;5.27;;
13967;SDS011;39536;52.198;9.920;2023-06-10T03:14:01;6.07;;;5.53;;
13967;SDS011;39536;52.198;9.920;2023-06-10T03:16:27;6.97;;;5.77;;
13967;SDS011;39536;52.198;9.920;2023-06-10T03:18:57;5.80;;;5.20;;
13967;SDS011;39536;52.198;9.920;2023-06-10T03:21:25;8.83;;;6.10;;
13967;SDS011;39536;52.198;9.920;2023-06-10T03:23:52;5.63;;;5.13;;
13967;SDS011;39536;52.198;9.920;2023-06-10T03:26:18;6.73;;;5.53;;
13967;SDS011;39536;52.198;9.920;2023-06-10T03:28:46;7.37;;;5.43;;
13967;SDS011;39536;52.198;9.920;2023-06-10T03:31:13;12.77;;;5.73;;
13967;SDS011;39536;52.198;9.920;2023-06-10T03:33:41;8.00;;;5.67;;
13967;SDS011;39536;52.198;9.920;2023-06-10T03:36:08;7.50;;;5.90;;
13967;SDS011;39536;52.198;9.920;2023-06-10T03:38:36;5.67;;;5.17;;
13967;SDS011;39536;52.198;9.920;2023-06-10T03:41:03;7.07;;;5.70;;
13967;SDS011;39536;52.198;9.920;2023-06-10T03:43:29;8.63;;;5.80;;
13967;SDS011;39536;52.198;9.920;2023-06-10T03:45:57;6.87;;;5.80;;
13967;SDS011;39536;52.198;9.920;2023-06-10T03:48:23;6.70;;;6.00;;
13967;SDS011;39536;52.198;9.920;2023-06-10T03:50:50;6.10;;;5.50;;
13967;SDS011;39536;52.198;9.920;2023-06-10T03:53:17;7.10;;;6.43;;
13967;SDS011;39536;52.198;9.920;2023-06-10T03:55:45;8.67;;;5.70;;
13967;SDS011;39536;52.198;9.920;2023-06-10T03:58:11;8.73;;;5.60;;
13967;SDS011;39536;52.198;9.920;2023-06-10T04:00:40;7.43;;;5.90;;
13967;SDS011;39536;52.198;9.920;2023-06-10T04:03:07;7.07;;;6.13;;
13967;SDS011;39536;52.198;9.920;2023-06-10T04:05:39;6.40;;;5.83;;
13967;SDS011;39536;52.198;9.920;2023-06-10T04:08:06;7.83;;;6.50;;
13967;SDS011;39536;52.198;9.920;2023-06-10T04:10:32;6.17;;;5.63;;
13967;SDS011;39536;52.198;9.920;2023-06-10T04:13:00;6.43;;;5.67;;
13967;SDS011;39536;52.198;9.920;2023-06-10T04:15:27;7.40;;;5.97;;
13967;SDS011;39536;52.198;9.920;2023-06-10T04:17:53;7.93;;;6.10;;
13967;SDS011;39536;52.198;9.920;2023-06-10T04:20:20;9.57;;;6.27;;
13967;SDS011;39536;52.198;9.920;2023-06-10T04:22:47;6.73;;;6.10;;
13967;SDS011;39536;52.198;9.920;2023-06-10T04:25:13;6.77;;;6.10;;
13967;SDS011;39536;52.198;9.920;2023-06-10T04:27:41;8.87;;;6.20;;
13967;SDS011;39536;52.198;9.920;2023-06-10T04:30:09;7.93;;;6.10;;
13967;SDS011;39536;52.198;9.920;2023-06-10T04:32:36;11.83;;;6.47;;
13967;SDS011;39536;52.198;9.920;2023-06-10T04:35:03;6.47;;;5.93;;
13967;SDS011;39536;52.198;9.920;2023-06-10T04:37:31;6.50;;;6.00;;
13967;SDS011;39536;52.198;9.920;2023-06-10T04:39:57;6.97;;;6.20;;
13967;SDS011;39536;52.198;9.920;2023-06-10T04:42:24;6.53;;;5.93;;
13967;SDS011;39536;52.198;9.920;2023-06-10T04:44:50;6.97;;;6.33;;
13967;SDS011;39536;52.198;9.920;2023-06-10T04:47:18;9.43;;;6.93;;
13967;SDS011;39536;52.198;9.920;2023-06-10T04:49:45;7.07;;;6.37;;
13967;SDS011;39536;52.198;9.920;2023-06-10T04:52:11;8.03;;;6.33;;
13967;SDS011;39536;52.198;9.920;2023-06-10T04:54:39;6.60;;;5.90;;
13967;SDS011;39536;52.198;9.920;2023-06-10T04:57:06;7.70;;;7.00;;
13967;SDS011;39536;52.198;9.920;2023-06-10T04:59:33;7.23;;;6.37;;
13967;SDS011;39536;52.198;9.920;2023-06-10T05:02:02;8.77;;;7.00;;
13967;SDS011;39536;52.198;9.920;2023-06-10T05:04:30;9.67;;;6.80;;
13967;SDS011;39536;52.198;9.920;2023-06-10T05:06:57;8.27;;;7.43;;
13967;SDS011;39536;52.198;9.920;2023-06-10T05:09:23;7.40;;;6.70;;
13967;SDS011;39536;52.198;9.920;2023-06-10T05:11:50;7.63;;;6.57;;
13967;SDS011;39536;52.198;9.920;2023-06-10T05:14:18;7.13;;;6.20;;
13967;SDS011;39536;52.198;9.920;2023-06-10T05:16:45;7.83;;;7.03;;
13967;SDS011;39536;52.198;9.920;2023-06-10T05:19:12;6.63;;;6.13;;
13967;SDS011;39536;52.198;9.920;2023-06-10T05:21:40;6.80;;;6.20;;
13967;SDS011;39536;52.198;9.920;2023-06-10T05:24:06;7.10;;;6.47;;
13967;SDS011;39536;52.198;9.920;2023-06-10T05:26:33;6.87;;;6.00;;
13967;SDS011;39536;52.198;9.920;2023-06-10T05:29:02;7.33;;;6.50;;
13967;SDS011;39536;52.198;9.920;2023-06-10T05:31:29;8.13;;;6.80;;
13967;SDS011;39536;52.198;9.920;2023-06-10T05:33:55;9.93;;;6.97;;
13967;SDS011;39536;52.198;9.920;2023-06-10T05:36:21;14.83;;;7.63;;
13967;SDS011;39536;52.198;9.920;2023-06-10T05:38:51;8.03;;;7.23;;
13967;SDS011;39536;52.198;9.920;2023-06-10T05:41:18;7.87;;;7.17;;
13967;SDS011;39536;52.198;9.920;2023-06-10T05:43:45;7.57;;;6.90;;
13967;SDS011;39536;52.198;9.920;2023-06-10T05:46:11;8.50;;;7.80;;
13967;SDS011;39536;52.198;9.920;2023-06-10T05:48:38;8.93;;;7.90;;
13967;SDS011;39536;52.198;9.920;2023-06-10T05:51:04;8.10;;;7.40;;
13967;SDS011;39536;52.198;9.920;2023-06-10T05:53:31;7.73;;;6.93;;
13967;SDS011;39536;52.198;9.920;2023-06-10T05:55:59;8.23;;;7.47;;
13967;SDS011;39536;52.198;9.920;2023-06-10T05:58:25;8.70;;;7.77;;
13967;SDS011;39536;52.198;9.920;2023-06-10T06:00:52;8.97;;;7.67;;
13967;SDS011;39536;52.198;9.920;2023-06-10T06:03:18;8.90;;;7.73;;
13967;SDS011;39536;52.198;9.920;2023-06-10T06:05:45;9.10;;;6.77;;
13967;SDS011;39536;52.198;9.920;2023-06-10T06:08:11;9.57;;;7.03;;
13967;SDS011;39536;52.198;9.920;2023-06-10T06:10:38;6.97;;;6.13;;
13967;SDS011;39536;52.198;9.920;2023-06-10T06:13:06;8.27;;;7.47;;
13967;SDS011;39536;52.198;9.920;2023-06-10T06:15:33;10.77;;;7.20;;
13967;SDS011;39536;52.198;9.920;2023-06-10T06:17:59;9.30;;;7.53;;
13967;SDS011;39536;52.198;9.920;2023-06-10T06:20:26;8.70;;;6.37;;
13967;SDS011;39536;52.198;9.920;2023-06-10T06:22:52;6.90;;;6.27;;
13967;SDS011;39536;52.198;9.920;2023-06-10T06:25:18;9.50;;;7.47;;
13967;SDS011;39536;52.198;9.920;2023-06-10T06:27:45;7.80;;;7.10;;
13967;SDS011;39536;52.198;9.920;2023-06-10T06:30:13;8.10;;;7.30;;
13967;SDS011;39536;52.198;9.920;2023-06-10T06:32:40;7.23;;;6.63;;
13967;SDS011;39536;52.198;9.920;2023-06-10T06:35:06;7.93;;;7.23;;
13967;SDS011;39536;52.198;9.920;2023-06-10T06:37:33;7.80;;;7.00;;
13967;SDS011;39536;52.198;9.920;2023-06-10T06:40:01;7.97;;;7.23;;
13967;SDS011;39536;52.198;9.920;2023-06-10T06:42:28;7.80;;;7.03;;
13967;SDS011;39536;52.198;9.920;2023-06-10T06:44:55;7.90;;;7.13;;
13967;SDS011;39536;52.198;9.920;2023-06-10T06:47:23;7.80;;;6.87;;
13967;SDS011;39536;52.198;9.920;2023-06-10T06:49:49;7.63;;;6.93;;
13967;SDS011;39536;52.198;9.920;2023-06-10T06:52:16;7.40;;;6.50;;
13967;SDS011;39536;52.198;9.920;2023-06-10T06:54:42;8.20;;;7.00;;
13967;SDS011;39536;52.198;9.920;2023-06-10T06:57:09;9.40;;;8.50;;
13967;SDS011;39536;52.198;9.920;2023-06-10T06:59:35;7.50;;;6.70;;
13967;SDS011;39536;52.198;9.920;2023-06-10T07:02:02;7.83;;;7.13;;
13967;SDS011;39536;52.198;9.920;2023-06-10T07:04:30;10.63;;;6.60;;
13967;SDS011;39536;52.198;9.920;2023-06-10T07:06:56;7.97;;;7.27;;
13967;SDS011;39536;52.198;9.920;2023-06-10T07:09:23;7.97;;;7.17;;
13967;SDS011;39536;52.198;9.920;2023-06-10T07:11:49;7.57;;;6.87;;
13967;SDS011;39536;52.198;9.920;2023-06-10T07:14:16;8.57;;;6.87;;
13967;SDS011;39536;52.198;9.920;2023-06-10T07:16:42;10.83;;;7.83;;
13967;SDS011;39536;52.198;9.920;2023-06-10T07:19:10;9.07;;;7.87;;
13967;SDS011;39536;52.198;9.920;2023-06-10T07:21:38;7.27;;;6.67;;
13967;SDS011;39536;52.198;9.920;2023-06-10T07:24:04;7.20;;;6.60;;
13967;SDS011;39536;52.198;9.920;2023-06-10T07:26:31;8.20;;;7.50;;
13967;SDS011;39536;52.198;9.920;2023-06-10T07:28:58;8.50;;;7.80;;
13967;SDS011;39536;52.198;9.920;2023-06-10T07:31:24;8.30;;;7.40;;
13967;SDS011;39536;52.198;9.920;2023-06-10T07:33:50;8.63;;;7.43;;
13967;SDS011;39536;52.198;9.920;2023-06-10T07:36:17;11.53;;;7.80;;
13967;SDS011;39536;52.198;9.920;2023-06-10T07:38:45;8.03;;;7.33;;
13967;SDS011;39536;52.198;9.920;2023-06-10T07:41:11;9.17;;;7.73;;
13967;SDS011;39536;52.198;9.920;2023-06-10T07:43:38;10.23;;;8.20;;
13967;SDS011;39536;52.198;9.920;2023-06-10T07:46:04;9.17;;;8.37;;
13967;SDS011;39536;52.198;9.920;2023-06-10T07:48:31;10.43;;;8.10;;
13967;SDS011;39536;52.198;9.920;2023-06-10T07:50:57;8.53;;;7.73;;
13967;SDS011;39536;52.198;9.920;2023-06-10T07:53:24;10.53;;;8.37;;
13967;SDS011;39536;52.198;9.920;2023-06-10T07:55:52;8.67;;;7.80;;
13967;SDS011;39536;52.198;9.920;2023-06-10T07:58:18;9.37;;;7.93;;
13967;SDS011;39536;52.198;9.920;2023-06-10T08:00:45;8.83;;;8.10;;
13967;SDS011;39536;52.198;9.920;2023-06-10T08:03:12;8.73;;;8.03;;
13967;SDS011;39536;52.198;9.920;2023-06-10T08:05:39;8.97;;;8.07;;
13967;SDS011;39536;52.198;9.920;2023-06-10T08:08:06;9.63;;;8.73;;
13967;SDS011;39536;52.198;9.920;2023-06-10T08:10:32;9.50;;;8.53;;
13967;SDS011;39536;52.198;9.920;2023-06-10T08:13:00;27.07;;;10.47;;
13967;SDS011;39536;52.198;9.920;2023-06-10T08:15:26;12.63;;;9.13;;
13967;SDS011;39536;52.198;9.920;2023-06-10T08:17:53;9.13;;;8.30;;
13967;SDS011;39536;52.198;9.920;2023-06-10T08:20:19;12.27;;;8.17;;
13967;SDS011;39536;52.198;9.920;2023-06-10T08:22:45;9.03;;;8.10;;
13967;SDS011;39536;52.198;9.920;2023-06-10T08:25:12;8.20;;;7.40;;
13967;SDS011;39536;52.198;9.920;2023-06-10T08:27:38;9.47;;;8.63;;
13967;SDS011;39536;52.198;9.920;2023-06-10T08:30:07;15.37;;;8.30;;
13967;SDS011;39536;52.198;9.920;2023-06-10T08:32:35;8.63;;;7.83;;
13967;SDS011;39536;52.198;9.920;2023-06-10T08:35:02;9.07;;;8.17;;
13967;SDS011;39536;52.198;9.920;2023-06-10T08:37:29;8.90;;;8.20;;
13967;SDS011;39536;52.198;9.920;2023-06-10T08:39:55;8.87;;;7.43;;
13967;SDS011;39536;52.198;9.920;2023-06-10T08:42:23;7.97;;;7.27;;
13967;SDS011;39536;52.198;9.920;2023-06-10T08:44:53;13.73;;;8.87;;
13967;SDS011;39536;52.198;9.920;2023-06-10T08:47:22;8.27;;;7.53;;
13967;SDS011;39536;52.198;9.920;2023-06-10T08:49:50;8.97;;;7.97;;
13967;SDS011;39536;52.198;9.920;2023-06-10T08:52:17;8.73;;;8.03;;
13967;SDS011;39536;52.198;9.920;2023-06-10T08:54:46;9.00;;;8.20;;
13967;SDS011;39536;52.198;9.920;2023-06-10T08:57:16;8.57;;;7.80;;
13967;SDS011;39536;52.198;9.920;2023-06-10T08:59:45;8.50;;;7.77;;
13967;SDS011;39536;52.198;9.920;2023-06-10T09:02:12;8.03;;;7.23;;
13967;SDS011;39536;52.198;9.920;2023-06-10T09:04:42;9.80;;;7.63;;
13967;SDS011;39536;52.198;9.920;2023-06-10T09:07:09;8.20;;;7.50;;
13967;SDS011;39536;52.198;9.920;2023-06-10T09:09:36;8.90;;;7.80;;
13967;SDS011;39536;52.198;9.920;2023-06-10T09:12:03;8.13;;;7.30;;
13967;SDS011;39536;52.198;9.920;2023-06-10T09:14:31;8.57;;;7.77;;
13967;SDS011;39536;52.198;9.920;2023-06-10T09:16:57;8.13;;;7.33;;
13967;SDS011;39536;52.198;9.920;2023-06-10T09:19:24;8.03;;;7.27;;
13967;SDS011;39536;52.198;9.920;2023-06-10T09:21:53;7.73;;;7.13;;
13967;SDS011;39536;52.198;9.920;2023-06-10T09:24:20;8.80;;;7.93;;
13967;SDS011;39536;52.198;9.920;2023-06-10T09:26:48;7.70;;;7.07;;
13967;SDS011;39536;52.198;9.920;2023-06-10T09:29:15;11.00;;;7.43;;
13967;SDS011;39536;52.198;9.920;2023-06-10T09:31:43;8.53;;;7.73;;
13967;SDS011;39536;52.198;9.920;2023-06-10T09:34:10;8.97;;;8.27;;
13967;SDS011;39536;52.198;9.920;2023-06-10T09:36:38;9.03;;;8.33;;
13967;SDS011;39536;52.198;9.920;2023-06-10T09:39:13;8.43;;;7.83;;
13967;SDS011;39536;52.198;9.920;2023-06-10T09:41:41;8.87;;;8.17;;
13967;SDS011;39536;52.198;9.920;2023-06-10T09:44:10;9.13;;;8.33;;
13967;SDS011;39536;52.198;9.920;2023-06-10T09:46:38;8.57;;;7.97;;
13967;SDS011;39536;52.198;9.920;2023-06-10T09:49:05;8.03;;;7.43;;
13967;SDS011;39536;52.198;9.920;2023-06-10T09:51:31;8.80;;;8.10;;
13967;SDS011;39536;52.198;9.920;2023-06-10T09:53:58;9.33;;;8.50;;
13967;SDS011;39536;52.198;9.920;2023-06-10T09:56:33;8.10;;;7.57;;
13967;SDS011;39536;52.198;9.920;2023-06-10T09:59:01;9.30;;;8.43;;
13967;SDS011;39536;52.198;9.920;2023-06-10T10:01:30;8.73;;;7.67;;
13967;SDS011;39536;52.198;9.920;2023-06-10T10:03:57;8.50;;;7.70;;
13967;SDS011;39536;52.198;9.920;2023-06-10T10:06:25;8.60;;;7.70;;
13967;SDS011;39536;52.198;9.920;2023-06-10T10:08:52;12.93;;;8.07;;
13967;SDS011;39536;52.198;9.920;2023-06-10T10:11:20;9.57;;;8.73;;
13967;SDS011;39536;52.198;9.920;2023-06-10T10:13:49;9.05;;;8.25;;
13967;SDS011;39536;52.198;9.920;2023-06-10T10:16:17;8.93;;;8.13;;
13967;SDS011;39536;52.198;9.920;2023-06-10T10:18:46;9.03;;;8.17;;
13967;SDS011;39536;52.198;9.920;2023-06-10T10:21:20;9.00;;;8.23;;
13967;SDS011;39536;52.198;9.920;2023-06-10T10:23:51;8.83;;;8.07;;
13967;SDS011;39536;52.198;9.920;2023-06-10T10:26:20;8.57;;;7.90;;
13967;SDS011;39536;52.198;9.920;2023-06-10T10:28:51;8.27;;;7.57;;
13967;SDS011;39536;52.198;9.920;2023-06-10T10:31:24;9.10;;;7.77;;
13967;SDS011;39536;52.198;9.920;2023-06-10T10:33:57;8.90;;;8.10;;
13967;SDS011;39536;52.198;9.920;2023-06-10T10:36:25;11.70;;;8.27;;
13967;SDS011;39536;52.198;9.920;2023-06-10T10:38:52;8.30;;;7.50;;
13967;SDS011;39536;52.198;9.920;2023-06-10T10:41:19;10.43;;;8.83;;
13967;SDS011;39536;52.198;9.920;2023-06-10T10:43:47;8.87;;;8.20;;
13967;SDS011;39536;52.198;9.920;2023-06-10T10:46:16;9.50;;;8.60;;
13967;SDS011;39536;52.198;9.920;2023-06-10T10:48:43;9.10;;;8.40;;
13967;SDS011;39536;52.198;9.920;2023-06-10T10:51:10;8.63;;;7.80;;
13967;SDS011;39536;52.198;9.920;2023-06-10T10:53:37;9.97;;;7.93;;
13967;SDS011;39536;52.198;9.920;2023-06-10T10:56:04;7.80;;;7.20;;
13967;SDS011;39536;52.198;9.920;2023-06-10T10:58:32;8.77;;;7.97;;
13967;SDS011;39536;52.198;9.920;2023-06-10T11:01:00;9.10;;;8.30;;
13967;SDS011;39536;52.198;9.920;2023-06-10T11:03:41;8.63;;;7.73;;
13967;SDS011;39536;52.198;9.920;2023-06-10T11:06:11;9.70;;;8.87;;
13967;SDS011;39536;52.198;9.920;2023-06-10T11:08:45;8.67;;;7.97;;
13967;SDS011;39536;52.198;9.920;2023-06-10T11:11:19;8.10;;;7.43;;
13967;SDS011;39536;52.198;9.920;2023-06-10T11:14:04;11.30;;;7.70;;
13967;SDS011;39536;52.198;9.920;2023-06-10T11:16:39;8.97;;;8.30;;
13967;SDS011;39536;52.198;9.920;2023-06-10T11:19:07;9.23;;;8.43;;
13967;SDS011;39536;52.198;9.920;2023-06-10T11:21:37;8.93;;;8.33;;
13967;SDS011;39536;52.198;9.920;2023-06-10T11:24:23;8.93;;;8.23;;
13967;SDS011;39536;52.198;9.920;2023-06-10T11:26:51;9.57;;;8.63;;
13967;SDS011;39536;52.198;9.920;2023-06-10T11:29:17;9.57;;;8.63;;
13967;SDS011;39536;52.198;9.920;2023-06-10T11:31:49;9.30;;;8.47;;
13967;SDS011;39536;52.198;9.920;2023-06-10T11:34:21;8.13;;;7.37;;
13967;SDS011;39536;52.198;9.920;2023-06-10T11:36:49;9.63;;;8.87;;
13967;SDS011;39536;52.198;9.920;2023-06-10T11:39:17;8.90;;;8.20;;
13967;SDS011;39536;52.198;9.920;2023-06-10T11:41:45;8.93;;;8.13;;
13967;SDS011;39536;52.198;9.920;2023-06-10T11:44:12;9.10;;;8.37;;
13967;SDS011;39536;52.198;9.920;2023-06-10T11:46:40;9.07;;;8.43;;
13967;SDS011;39536;52.198;9.920;2023-06-10T11:49:09;10.03;;;9.23;;
13967;SDS011;39536;52.198;9.920;2023-06-10T11:51:36;8.00;;;7.40;;
13967;SDS011;39536;52.198;9.920;2023-06-10T11:54:04;8.57;;;7.97;;
13967;SDS011;39536;52.198;9.920;2023-06-10T11:56:31;9.13;;;8.30;;
13967;SDS011;39536;52.198;9.920;2023-06-10T11:58:58;8.53;;;7.93;;
13967;SDS011;39536;52.198;9.920;2023-06-10T12:01:29;8.37;;;7.57;;
13967;SDS011;39536;52.198;9.920;2023-06-10T12:03:57;8.30;;;7.67;;
13967;SDS011;39536;52.198;9.920;2023-06-10T12:06:26;8.50;;;7.80;;
13967;SDS011;39536;52.198;9.920;2023-06-10T12:08:53;9.27;;;8.43;;
13967;SDS011;39536;52.198;9.920;2023-06-10T12:11:20;9.03;;;8.43;;
13967;SDS011;39536;52.198;9.920;2023-06-10T12:13:48;8.77;;;8.17;;
13967;SDS011;39536;52.198;9.920;2023-06-10T12:16:15;9.30;;;8.70;;
13967;SDS011;39536;52.198;9.920;2023-06-10T12:18:43;9.20;;;8.40;;
13967;SDS011;39536;52.198;9.920;2023-06-10T12:21:17;8.03;;;7.43;;
13967;SDS011;39536;52.198;9.920;2023-06-10T12:24:04;8.90;;;8.30;;
13967;SDS011;39536;52.198;9.920;2023-06-10T12:26:36;8.87;;;8.07;;
13967;SDS011;39536;52.198;9.920;2023-06-10T12:29:12;9.83;;;8.87;;
13967;SDS011;39536;52.198;9.920;2023-06-10T12:31:54;8.67;;;7.97;;
13967;SDS011;39536;52.198;9.920;2023-06-10T12:37:10;8.87;;;8.27;;
13967;SDS011;39536;52.198;9.920;2023-06-10T12:39:41;9.40;;;8.80;;
13967;SDS011;39536;52.198;9.920;2023-06-10T12:42:08;9.37;;;8.67;;
13967;SDS011;39536;52.198;9.920;2023-06-10T12:44:38;9.80;;;9.00;;
13967;SDS011;39536;52.198;9.920;2023-06-10T12:47:09;8.70;;;8.10;;
13967;SDS011;39536;52.198;9.920;2023-06-10T12:49:37;10.10;;;9.30;;
13967;SDS011;39536;52.198;9.920;2023-06-10T12:52:04;8.00;;;7.50;;
13967;SDS011;39536;52.198;9.920;2023-06-10T12:54:32;9.57;;;8.80;;
13967;SDS011;39536;52.198;9.920;2023-06-10T12:57:01;9.60;;;8.90;;
13967;SDS011;39536;52.198;9.920;2023-06-10T12:59:27;8.93;;;8.33;;
13967;SDS011;39536;52.198;9.920;2023-06-10T13:01:54;8.43;;;7.93;;
13967;SDS011;39536;52.198;9.920;2023-06-10T13:04:21;9.00;;;8.40;;
13967;SDS011;39536;52.198;9.920;2023-06-10T13:06:48;9.40;;;8.80;;
13967;SDS011;39536;52.198;9.920;2023-06-10T13:09:15;8.73;;;8.13;;
13967;SDS011;39536;52.198;9.920;2023-06-10T13:11:42;8.93;;;8.23;;
13967;SDS011;39536;52.198;9.920;2023-06-10T13:14:11;9.53;;;8.77;;
13967;SDS011;39536;52.198;9.920;2023-06-10T13:16:37;9.10;;;8.60;;
13967;SDS011;39536;52.198;9.920;2023-06-10T13:19:04;8.60;;;8.10;;
13967;SDS011;39536;52.198;9.920;2023-06-10T13:21:31;8.90;;;8.30;;
13967;SDS011;39536;52.198;9.920;2023-06-10T13:23:58;8.63;;;8.13;;
13967;SDS011;39536;52.198;9.920;2023-06-10T13:26:25;9.70;;;9.10;;
13967;SDS011;39536;52.198;9.920;2023-06-10T13:28:51;9.87;;;8.93;;
13967;SDS011;39536;52.198;9.920;2023-06-10T13:31:19;9.20;;;8.60;;
13967;SDS011;39536;52.198;9.920;2023-06-10T13:33:46;9.00;;;8.40;;
13967;SDS011;39536;52.198;9.920;2023-06-10T13:36:13;9.20;;;8.60;;
13967;SDS011;39536;52.198;9.920;2023-06-10T13:38:39;8.50;;;7.93;;
13967;SDS011;39536;52.198;9.920;2023-06-10T13:41:06;8.70;;;8.20;;
13967;SDS011;39536;52.198;9.920;2023-06-10T13:43:32;9.30;;;8.60;;
13967;SDS011;39536;52.198;9.920;2023-06-10T13:45:59;9.67;;;9.00;;
13967;SDS011;39536;52.198;9.920;2023-06-10T13:48:26;9.50;;;8.50;;
13967;SDS011;39536;52.198;9.920;2023-06-10T13:50:53;8.83;;;8.13;;
13967;SDS011;39536;52.198;9.920;2023-06-10T13:53:19;8.27;;;7.77;;
13967;SDS011;39536;52.198;9.920;2023-06-10T13:55:46;9.90;;;8.17;;
13967;SDS011;39536;52.198;9.920;2023-06-10T13:58:12;8.63;;;8.07;;
13967;SDS011;39536;52.198;9.920;2023-06-10T14:00:39;8.90;;;8.23;;
13967;SDS011;39536;52.198;9.920;2023-06-10T14:03:06;9.47;;;8.97;;
13967;SDS011;39536;52.198;9.920;2023-06-10T14:05:33;9.70;;;8.90;;
13967;SDS011;39536;52.198;9.920;2023-06-10T14:08:00;9.07;;;8.27;;
13967;SDS011;39536;52.198;9.920;2023-06-10T14:10:27;9.87;;;8.97;;
13967;SDS011;39536;52.198;9.920;2023-06-10T14:12:53;9.17;;;8.37;;
13967;SDS011;39536;52.198;9.920;2023-06-10T14:15:20;8.13;;;7.63;;
13967;SDS011;39536;52.198;9.920;2023-06-10T14:17:46;9.37;;;8.67;;
13967;SDS011;39536;52.198;9.920;2023-06-10T14:20:13;8.73;;;8.13;;
13967;SDS011;39536;52.198;9.920;2023-06-10T14:22:41;8.53;;;8.00;;
13967;SDS011;39536;52.198;9.920;2023-06-10T14:25:07;9.53;;;8.83;;
13967;SDS011;39536;52.198;9.920;2023-06-10T14:27:34;10.77;;;8.83;;
13967;SDS011;39536;52.198;9.920;2023-06-10T14:30:01;9.23;;;8.53;;
13967;SDS011;39536;52.198;9.920;2023-06-10T14:32:29;8.83;;;8.23;;
13967;SDS011;39536;52.198;9.920;2023-06-10T14:34:55;8.73;;;8.23;;
13967;SDS011;39536;52.198;9.920;2023-06-10T14:37:21;8.93;;;8.43;;
13967;SDS011;39536;52.198;9.920;2023-06-10T14:39:49;8.30;;;7.67;;
13967;SDS011;39536;52.198;9.920;2023-06-10T14:42:16;9.20;;;8.30;;
13967;SDS011;39536;52.198;9.920;2023-06-10T14:44:42;8.40;;;7.60;;
13967;SDS011;39536;52.198;9.920;2023-06-10T14:47:09;8.10;;;7.63;;
13967;SDS011;39536;52.198;9.920;2023-06-10T14:49:35;8.07;;;7.50;;
13967;SDS011;39536;52.198;9.920;2023-06-10T14:52:02;9.03;;;8.23;;
13967;SDS011;39536;52.198;9.920;2023-06-10T14:54:29;8.70;;;8.20;;